»·PEaware :: PHKIM KEUL-0ID2

PHKIM :: KEUL-0ID2

FLIGHT INFORMATION

Flight Status: Arrived
Operator: Unknown
More flights by this operator :: More flights under this callsign
Pilot: Kim B. (19519)
Aircraft: SOCATA TBM-900
(TBM9)
More flights by this aircraft type
Origin: KEUL Caldwell Industrial
United States
Destination: 0ID2 Flying Joseph Ranch Airport
United States
More flights between these airports :: More routes between these airports
Route:
File this flight plan on PilotEdge
Remarks:
Altitude:
(Current/Filed)
1,600ft
Speed:
(Current/Filed)
250kts
Departed: 23-Oct-18 04:07 PM
Arrived: 23-Oct-18 04:52 PM
Distance/Time
Traveled:
133nm/0:45
Distance/Time
To Go:
Arrived

Flight Plot

Page will automatically refresh every two minutes.

Flight plan parsing failed; only flown route is shown


Map Options




Map Legend


Flown Route
Filed Route
Departure Airport
Arrival Airport
Navaid (VOR, NDB)
Fix

Horizontal Profiles

Position Reports

Time Latitude Longitude Heading Altitude Ground
Speed
23-Oct-18 16:08 43.636022 -116.629259 45 2421ft 3kts
23-Oct-18 16:09 43.638531 -116.631293 316 2422ft 79kts
23-Oct-18 16:10 43.661285 -116.638698 51 3636ft 151kts
23-Oct-18 16:11 43.684831 -116.600283 54 4804ft 186kts
23-Oct-18 16:12 43.707876 -116.558357 55 6134ft 194kts
23-Oct-18 16:13 43.730020 -116.516774 55 7514ft 193kts
23-Oct-18 16:14 43.757709 -116.463360 54 9277ft 205kts
23-Oct-18 16:15 43.776107 -116.406954 100 10919ft 196kts
23-Oct-18 16:16 43.769099 -116.352320 100 12405ft 191kts
23-Oct-18 16:17 43.767294 -116.298588 85 13871ft 184kts
23-Oct-18 16:18 43.769535 -116.247103 85 15313ft 177kts
23-Oct-18 16:19 43.771964 -116.189845 85 15888ft 225kts
23-Oct-18 16:20 43.775292 -116.117431 85 15874ft 279kts
23-Oct-18 16:21 43.779120 -116.036815 85 15858ft 294kts
23-Oct-18 16:22 43.783364 -115.948405 85 15855ft 299kts
23-Oct-18 16:23 43.791593 -115.868813 54 15829ft 295kts
23-Oct-18 16:24 43.844386 -115.796239 40 15855ft 292kts
23-Oct-18 16:25 43.896851 -115.725490 40 15854ft 292kts
23-Oct-18 16:26 43.949159 -115.654976 40 15854ft 292kts
23-Oct-18 16:27 44.002494 -115.583214 40 15855ft 292kts
23-Oct-18 16:28 44.055513 -115.514226 38 15855ft 292kts
23-Oct-18 16:29 44.112191 -115.443391 37 15856ft 291kts
23-Oct-18 16:30 44.164062 -115.380821 35 15866ft 291kts
23-Oct-18 16:31 44.216607 -115.320729 35 15882ft 290kts
23-Oct-18 16:32 44.260425 -115.259461 47 15895ft 293kts
23-Oct-18 16:33 44.299027 -115.194345 47 15898ft 293kts
23-Oct-18 16:34 44.345240 -115.117097 47 15899ft 291kts
23-Oct-18 16:35 44.390275 -115.043067 46 15899ft 289kts
23-Oct-18 16:36 44.430976 -114.977213 46 15899ft 286kts
23-Oct-18 16:37 44.476535 -114.904361 46 15898ft 284kts
23-Oct-18 16:38 44.521897 -114.831815 46 15899ft 283kts
23-Oct-18 16:39 44.564802 -114.763164 46 15899ft 282kts
23-Oct-18 16:40 44.607574 -114.694718 46 15899ft 282kts
23-Oct-18 16:41 44.653879 -114.619235 52 15501ft 294kts
23-Oct-18 16:42 44.669318 -114.515553 80 14612ft 306kts
23-Oct-18 16:43 44.680786 -114.406924 80 13697ft 304kts
23-Oct-18 16:44 44.691855 -114.302875 80 12812ft 303kts
23-Oct-18 16:45 44.703536 -114.193896 80 11879ft 302kts
23-Oct-18 16:46 44.693306 -114.107572 111 11066ft 277kts
23-Oct-18 16:47 44.659905 -114.013444 124 9908ft 227kts
23-Oct-18 16:48 44.632329 -113.957035 124 8631ft 217kts
23-Oct-18 16:49 44.592010 -113.884962 130 6454ft 214kts
23-Oct-18 16:50 44.564328 -113.844522 151 6143ft 145kts
23-Oct-18 16:51 44.528423 -113.820741 159 6584ft 146kts
23-Oct-18 16:52 44.488920 -113.804296 187 6601ft 110kts
23-Oct-18 16:53 44.464150 -113.800014 159 6042ft 135kts
23-Oct-18 16:54 44.446486 -113.780075 126 5580ft 0kts
23-Oct-18 16:55 44.446490 -113.780082 126 5581ft 0kts
23-Oct-18 16:56 44.445864 -113.778901 127 5585ft 12kts
23-Oct-18 16:57 44.442708 -113.772954 127 5605ft 28kts
23-Oct-18 16:58 44.440271 -113.770527 118 5620ft 9kts
23-Oct-18 16:59 44.440199 -113.770069 122 5618ft 0kts
23-Oct-18 17:00 44.440199 -113.770069 122 5618ft 0kts
23-Oct-18 17:01 44.440166 -113.770673 304 5620ft 0kts
23-Oct-18 17:02 44.440166 -113.770673 304 5620ft 0kts
23-Oct-18 17:03 44.440166 -113.770673 304 5620ft 0kts
23-Oct-18 17:04 44.440166 -113.770673 304 5620ft 0kts
23-Oct-18 17:05 44.440166 -113.770673 304 5620ft 0kts
23-Oct-18 17:06 44.440166 -113.770673 304 5620ft 0kts
23-Oct-18 17:07 44.440166 -113.770673 304 5620ft 0kts
23-Oct-18 17:08 44.440166 -113.770673 304 5620ft 0kts
23-Oct-18 17:09 44.440166 -113.770673 304 5620ft 0kts

Navigation Log

Ident Type
Flight plan parsing failed, navigation log unavailable